Time;durP1;ratioP1;P1;durP2;ratioP2;P2;SDS_P1;SDS_P2;PMS_P1;PMS_P2;Temp;Humidity;BMP_temperature;BMP_pressure;BME280_temperature;BME280_humidity;BME280_pressure;Samples;Min_cycle;Max_cycle;Signal;HPM_P1;HPM_P2
2022/03/21 00:01:55;;;;;;;11.10;9.93;;;9.30;26.10;;;;;;6250933;22;20161;-85
2022/03/21 00:04:22;;;;;;;13.33;9.93;;;9.40;25.90;;;;;;6250174;22;20400;-85
2022/03/21 00:06:48;;;;;;;14.10;11.57;;;9.30;26.00;;;;;;6250325;22;20542;-85
2022/03/21 00:09:13;;;;;;;14.87;11.57;;;9.20;26.50;;;;;;6250053;22;20439;-85
2022/03/21 00:11:39;;;;;;;12.60;10.23;;;9.20;26.50;;;;;;6277851;22;20841;-79
2022/03/21 00:14:05;;;;;;;12.10;10.43;;;9.10;26.90;;;;;;6249022;22;20155;-78
2022/03/21 00:16:31;;;;;;;13.87;11.10;;;9.10;26.40;;;;;;6248625;22;20185;-78
2022/03/21 00:18:57;;;;;;;13.53;11.00;;;9.20;27.00;;;;;;6248333;22;20158;-78
2022/03/21 00:21:23;;;;;;;14.27;11.10;;;9.20;26.70;;;;;;6248266;22;20159;-78
2022/03/21 00:23:49;;;;;;;11.90;9.70;;;9.10;26.40;;;;;;6248127;22;20147;-78
2022/03/21 00:26:15;;;;;;;11.73;10.27;;;9.10;26.30;;;;;;6248434;22;20543;-78
2022/03/21 00:28:41;;;;;;;14.70;10.70;;;9.00;27.20;;;;;;6247426;22;20386;-78
2022/03/21 00:31:07;;;;;;;13.97;10.67;;;9.20;26.40;;;;;;6247852;22;20393;-78
2022/03/21 00:33:33;;;;;;;13.53;10.60;;;9.00;26.30;;;;;;6247406;22;20389;-78
2022/03/21 00:35:59;;;;;;;12.50;11.20;;;9.00;27.30;;;;;;6274263;22;20534;-78
2022/03/21 00:38:26;;;;;;;12.37;10.10;;;8.90;26.50;;;;;;6246994;22;20378;-78
2022/03/21 00:40:52;;;;;;;15.50;10.43;;;8.90;27.20;;;;;;6247051;22;20754;-78
2022/03/21 00:43:23;;;;;;;11.27;10.13;;;8.90;26.50;;;;;;6247250;22;20392;-78
2022/03/21 00:45:52;;;;;;;10.83;9.40;;;8.90;26.40;;;;;;6247022;22;20700;-78
2022/03/21 00:48:18;;;;;;;13.50;10.53;;;8.80;27.20;;;;;;6246969;22;20392;-78
2022/03/21 00:50:44;;;;;;;15.20;11.00;;;8.60;27.10;;;;;;6273732;22;20427;-78
2022/03/21 00:53:10;;;;;;;12.67;10.47;;;8.60;26.30;;;;;;6247291;22;20451;-78
2022/03/21 00:55:36;;;;;;;11.70;9.60;;;8.70;27.10;;;;;;6245787;22;20494;-79
2022/03/21 00:58:02;;;;;;;11.30;10.13;;;8.60;27.00;;;;;;6245972;22;20381;-79
2022/03/21 01:00:31;;;;;;;12.00;9.60;;;8.60;26.70;;;;;;6246111;22;20163;-78
2022/03/21 01:02:59;;;;;;;12.40;10.17;;;8.70;26.50;;;;;;6246468;22;20713;-78
2022/03/21 01:05:25;;;;;;;12.67;10.23;;;8.60;26.80;;;;;;6246166;22;20389;-78
2022/03/21 01:07:52;;;;;;;10.70;9.70;;;8.60;26.60;;;;;;6246850;22;20933;-78
2022/03/21 01:10:20;;;;;;;9.73;8.73;;;8.60;26.30;;;;;;6246484;22;20495;-79
2022/03/21 01:12:47;;;;;;;11.63;10.53;;;8.60;26.40;;;;;;6245861;22;20480;-78
2022/03/21 01:15:15;;;;;;;9.30;8.40;;;8.50;26.70;;;;;;6246210;22;20393;-78
2022/03/21 01:17:45;;;;;;;9.63;8.63;;;8.50;27.00;;;;;;6246116;22;20465;-78
2022/03/21 01:20:13;;;;;;;12.60;10.73;;;8.50;26.70;;;;;;6246290;22;20710;-79
2022/03/21 01:22:39;;;;;;;10.67;9.60;;;8.60;26.90;;;;;;6246099;22;20714;-78
2022/03/21 01:25:06;;;;;;;14.20;11.00;;;8.50;27.40;;;;;;6246329;22;20386;-79
2022/03/21 01:27:34;;;;;;;12.63;10.20;;;8.40;27.10;;;;;;6246281;22;20386;-78
2022/03/21 01:30:04;;;;;;;12.80;10.77;;;8.50;27.50;;;;;;6246367;22;20712;-78
2022/03/21 01:32:30;;;;;;;12.57;10.27;;;8.50;27.60;;;;;;6246039;22;20392;-78
2022/03/21 01:34:56;;;;;;;12.53;9.60;;;8.40;27.40;;;;;;6245999;22;20389;-78
2022/03/21 01:37:21;;;;;;;14.13;10.70;;;8.30;27.20;;;;;;6245924;22;20193;-78
2022/03/21 01:39:47;;;;;;;12.90;10.63;;;8.20;27.50;;;;;;6247989;22;20389;-78
2022/03/21 01:42:14;;;;;;;12.67;10.33;;;8.20;27.80;;;;;;6246122;22;20150;-79
2022/03/21 01:44:40;;;;;;;13.63;11.20;;;8.10;27.60;;;;;;6245941;22;20154;-78
2022/03/21 01:47:06;;;;;;;10.73;9.63;;;8.20;28.20;;;;;;6245790;22;20390;-79
2022/03/21 01:49:32;;;;;;;10.40;9.27;;;8.30;27.90;;;;;;6246067;22;20416;-78
2022/03/21 01:51:58;;;;;;;11.37;9.90;;;8.10;28.00;;;;;;6245562;22;20158;-78
2022/03/21 01:57:11;;;;;;;11.33;10.10;;;8.30;27.90;;;;;;6273826;22;20417;-78
2022/03/21 01:59:37;;;;;;;11.47;10.27;;;8.20;28.50;;;;;;6246160;22;20386;-78
2022/03/21 02:02:05;;;;;;;14.13;9.40;;;8.00;28.50;;;;;;6246913;22;20468;-78
2022/03/21 02:04:31;;;;;;;10.73;8.33;;;7.80;28.40;;;;;;6246077;22;20381;-78
2022/03/21 02:06:58;;;;;;;14.13;9.30;;;8.00;28.80;;;;;;6246164;22;20386;-78
2022/03/21 02:09:24;;;;;;;11.13;8.20;;;7.90;29.10;;;;;;6245854;22;20408;-79
2022/03/21 02:11:50;;;;;;;11.63;9.00;;;7.80;29.00;;;;;;6247481;22;20443;-78
2022/03/21 02:14:16;;;;;;;11.23;10.10;;;7.70;29.30;;;;;;6246477;22;20393;-78
2022/03/21 02:16:42;;;;;;;13.40;10.67;;;7.80;29.50;;;;;;6246563;22;20425;-78
2022/03/21 02:19:20;;;;;;;12.10;9.43;;;7.90;29.40;;;;;;6245904;22;20381;-78
2022/03/21 02:21:58;;;;;;;11.83;10.50;;;7.90;29.10;;;;;;6245310;22;20154;-78
2022/03/21 02:24:55;;;;;;;11.77;9.40;;;7.90;29.50;;;;;;6245671;22;20388;-78
2022/03/21 02:27:25;;;;;;;15.30;9.50;;;7.80;29.40;;;;;;6273064;22;20374;-78
2022/03/21 02:29:52;;;;;;;12.30;10.37;;;7.80;29.10;;;;;;6245526;22;20917;-78
2022/03/21 02:32:19;;;;;;;12.90;9.50;;;7.80;29.60;;;;;;6245161;22;20407;-78
2022/03/21 02:34:46;;;;;;;13.70;9.70;;;7.80;29.30;;;;;;6245612;22;20899;-78
2022/03/21 02:37:16;;;;;;;12.00;9.80;;;7.90;29.30;;;;;;6247865;22;20483;-78
2022/03/21 02:39:43;;;;;;;11.93;9.80;;;7.80;29.40;;;;;;6247774;22;20384;-78
2022/03/21 02:42:10;;;;;;;11.77;9.60;;;7.80;29.40;;;;;;6247228;22;20385;-78
2022/03/21 02:44:37;;;;;;;9.60;8.57;;;7.70;29.60;;;;;;6247216;22;20389;-78
2022/03/21 02:47:07;;;;;;;11.27;10.03;;;7.70;29.40;;;;;;6247403;22;20389;-77
2022/03/21 02:49:33;;;;;;;12.07;10.00;;;7.80;29.10;;;;;;6247437;22;20834;-78
2022/03/21 02:52:02;;;;;;;14.43;10.10;;;7.80;28.80;;;;;;6247588;22;20389;-78
2022/03/21 02:54:28;;;;;;;11.40;10.30;;;7.90;29.10;;;;;;6247509;22;20385;-77
2022/03/21 02:56:55;;;;;;;13.40;10.63;;;7.90;29.00;;;;;;6246810;22;20489;-77
2022/03/21 02:59:21;;;;;;;10.93;9.80;;;7.80;29.10;;;;;;6247329;22;20378;-78
2022/03/21 03:01:47;;;;;;;11.20;10.07;;;7.90;29.20;;;;;;6246764;22;20478;-78
2022/03/21 03:04:13;;;;;;;13.37;9.97;;;7.90;28.60;;;;;;6246841;22;20854;-77
2022/03/21 03:06:43;;;;;;;9.50;8.53;;;7.80;29.00;;;;;;6274901;22;20381;-80
2022/03/21 03:09:09;;;;;;;12.10;9.53;;;7.80;29.10;;;;;;6247302;22;20185;-78
2022/03/21 03:11:38;;;;;;;14.37;11.40;;;7.70;29.50;;;;;;6246702;22;20386;-78
2022/03/21 03:14:06;;;;;;;10.50;9.50;;;7.60;29.30;;;;;;6246604;22;20389;-80
2022/03/21 03:16:32;;;;;;;11.30;9.60;;;7.70;29.80;;;;;;6246748;22;20433;-80
2022/03/21 03:18:57;;;;;;;11.57;10.47;;;7.70;29.60;;;;;;6270832;22;20830;-80
2022/03/21 03:21:26;;;;;;;14.77;11.73;;;7.70;29.80;;;;;;6245819;22;20411;-80
2022/03/21 03:23:52;;;;;;;12.97;10.33;;;7.60;30.50;;;;;;6246394;22;20194;-77
2022/03/21 03:26:36;;;;;;;12.50;10.97;;;7.50;30.40;;;;;;6244628;22;20438;-78
2022/03/21 03:29:02;;;;;;;10.60;9.27;;;7.50;31.10;;;;;;6245329;22;20389;-78
2022/03/21 03:31:41;;;;;;;9.93;9.03;;;7.40;31.50;;;;;;6245974;22;20843;-78
2022/03/21 03:34:07;;;;;;;9.07;8.27;;;7.40;31.90;;;;;;6247877;22;20474;-78
2022/03/21 03:36:38;;;;;;;12.33;10.10;;;7.30;31.80;;;;;;6244978;22;20795;-78
2022/03/21 03:39:05;;;;;;;10.57;9.63;;;7.30;31.90;;;;;;6248327;22;20416;-78
2022/03/21 03:41:31;;;;;;;10.93;9.63;;;7.20;31.50;;;;;;6245622;22;20676;-85
2022/03/21 03:43:58;;;;;;;14.73;13.07;;;7.30;31.80;;;;;;6247375;22;20377;-85
2022/03/21 03:46:28;;;;;;;15.50;13.60;;;7.30;31.70;;;;;;6244871;22;20880;-86
2022/03/21 03:48:54;;;;;;;16.60;14.93;;;7.30;31.30;;;;;;6246489;22;20456;-85
2022/03/21 03:51:21;;;;;;;15.43;13.70;;;7.40;31.50;;;;;;6246765;22;20399;-85
2022/03/21 03:53:47;;;;;;;15.80;14.40;;;7.30;32.20;;;;;;6246842;22;20468;-83
2022/03/21 03:56:13;;;;;;;17.57;15.10;;;7.20;31.40;;;;;;6246300;22;20439;-83
2022/03/21 04:05:04;;;;;;;17.33;15.80;;;7.30;32.10;;;;;;6249082;22;20377;-77
2022/03/21 04:07:29;;;;;;;17.40;15.70;;;7.30;31.70;;;;;;6246021;22;20384;-78
2022/03/21 04:09:55;;;;;;;16.40;14.70;;;7.30;31.30;;;;;;6246308;22;20420;-77
2022/03/21 04:12:21;;;;;;;16.93;15.23;;;7.30;31.80;;;;;;6246837;22;20460;-78
2022/03/21 04:14:48;;;;;;;12.20;10.40;;;7.30;32.00;;;;;;6245862;22;20244;-78
2022/03/21 04:17:13;;;;;;;16.47;14.87;;;7.20;32.10;;;;;;6245963;22;20194;-78
2022/03/21 04:19:39;;;;;;;17.33;15.80;;;7.10;32.50;;;;;;6246453;22;20857;-78
2022/03/21 04:22:05;;;;;;;14.90;13.53;;;7.10;32.40;;;;;;6273736;22;20904;-78
2022/03/21 04:24:31;;;;;;;17.80;14.67;;;7.10;31.80;;;;;;6246171;22;20524;-78
2022/03/21 04:26:57;;;;;;;18.03;16.23;;;7.10;31.20;;;;;;6246199;22;20536;-78
2022/03/21 04:29:22;;;;;;;15.27;13.87;;;7.20;31.20;;;;;;6245775;22;20246;-78
2022/03/21 04:31:48;;;;;;;16.37;14.77;;;7.20;31.90;;;;;;6245785;22;20245;-78
2022/03/21 04:34:14;;;;;;;17.37;15.77;;;7.20;31.20;;;;;;6246945;22;20151;-77
2022/03/21 04:36:40;;;;;;;17.80;16.10;;;7.10;32.00;;;;;;6246914;22;20438;-78
2022/03/21 04:39:06;;;;;;;18.43;15.97;;;7.20;31.20;;;;;;6246581;22;20161;-78
2022/03/21 04:41:31;;;;;;;19.23;17.53;;;7.20;31.70;;;;;;6247899;22;20885;-78
2022/03/21 04:43:57;;;;;;;17.60;15.73;;;7.10;32.10;;;;;;6247039;22;20166;-78
2022/03/21 04:46:24;;;;;;;19.23;17.33;;;6.90;33.60;;;;;;6248245;22;20189;-78
2022/03/21 04:48:50;;;;;;;17.63;16.00;;;6.90;33.70;;;;;;6247519;22;20163;-78
2022/03/21 04:51:15;;;;;;;17.23;14.45;;;6.80;34.00;;;;;;6246837;22;20386;-77
2022/03/21 04:53:41;;;;;;;16.23;12.27;;;6.80;33.90;;;;;;6248637;22;20158;-78
2022/03/21 04:56:08;;;;;;;12.70;10.37;;;6.80;34.40;;;;;;6248537;22;20193;-78
2022/03/21 04:58:33;;;;;;;11.40;9.80;;;6.80;34.40;;;;;;6248815;22;20706;-78
2022/03/21 05:01:00;;;;;;;11.13;9.40;;;6.80;33.90;;;;;;6248805;22;20409;-78
2022/03/21 05:03:26;;;;;;;18.07;16.13;;;6.80;34.00;;;;;;6250024;22;20535;-88
2022/03/21 05:05:51;;;;;;;17.60;16.00;;;6.80;34.00;;;;;;6250400;22;20397;-87
2022/03/21 05:08:17;;;;;;;17.37;15.47;;;6.80;34.40;;;;;;6249942;22;20635;-78
2022/03/21 05:10:43;;;;;;;16.53;15.03;;;6.80;34.10;;;;;;6249571;22;20773;-85
2022/03/21 05:13:09;;;;;;;16.87;15.17;;;6.80;33.80;;;;;;6249296;22;20155;-84
2022/03/21 05:15:36;;;;;;;16.27;14.77;;;6.80;33.70;;;;;;6248881;22;20438;-85
2022/03/21 05:18:02;;;;;;;19.63;17.80;;;6.80;34.00;;;;;;6248786;22;20153;-83
2022/03/21 05:20:29;;;;;;;16.50;15.00;;;6.70;33.80;;;;;;6248657;22;20787;-84
2022/03/21 05:31:08;;;;;;;17.23;15.60;;;6.80;33.50;;;;;;6275553;22;20365;-83
2022/03/21 05:36:23;;;;;;;16.53;15.03;;;6.80;32.90;;;;;;6275508;22;20504;-84
2022/03/21 05:38:49;;;;;;;16.17;14.47;;;6.80;32.80;;;;;;6248571;22;20382;-85
2022/03/21 05:41:15;;;;;;;16.80;15.50;;;6.80;32.70;;;;;;6248838;22;20392;-84
2022/03/21 05:43:41;;;;;;;16.60;15.00;;;6.70;32.00;;;;;;6247814;22;20381;-84
2022/03/21 05:46:07;;;;;;;16.03;13.70;;;6.80;30.60;;;;;;6248770;22;20401;-84
2022/03/21 05:48:52;;;;;;;15.10;13.70;;;6.80;30.80;;;;;;6248077;22;20150;-84
2022/03/21 05:51:27;;;;;;;17.20;15.63;;;6.80;30.60;;;;;;6245500;22;20205;-84
2022/03/21 05:53:57;;;;;;;15.40;13.97;;;6.70;28.80;;;;;;6247191;22;20395;-84
2022/03/21 05:56:25;;;;;;;15.13;13.93;;;6.80;29.00;;;;;;6248532;22;20432;-84
2022/03/21 05:58:52;;;;;;;14.97;13.67;;;6.90;29.40;;;;;;6248429;22;20708;-84
2022/03/21 06:01:21;;;;;;;17.37;15.67;;;6.80;29.60;;;;;;6248353;22;20385;-84
2022/03/21 06:03:48;;;;;;;14.23;12.93;;;6.80;29.10;;;;;;6247984;22;20861;-84
2022/03/21 06:06:15;;;;;;;14.23;12.83;;;6.80;29.20;;;;;;6248649;22;20389;-84
2022/03/21 06:08:42;;;;;;;15.27;13.97;;;6.80;29.90;;;;;;6247849;22;20409;-84
2022/03/21 06:11:08;;;;;;;15.80;14.10;;;6.90;28.80;;;;;;6248650;22;20539;-83
2022/03/21 06:13:36;;;;;;;17.03;15.53;;;6.80;29.20;;;;;;6248033;22;20381;-84
2022/03/21 06:16:04;;;;;;;14.97;13.60;;;6.90;28.50;;;;;;6248386;22;20436;-84
2022/03/21 06:18:35;;;;;;;13.60;12.27;;;6.90;28.00;;;;;;6248237;22;20385;-84
2022/03/21 06:21:02;;;;;;;17.03;15.53;;;6.90;27.50;;;;;;6247893;22;20460;-84
2022/03/21 06:23:28;;;;;;;13.40;10.30;;;6.90;27.10;;;;;;6248042;22;20386;-84
2022/03/21 06:25:55;;;;;;;16.77;15.40;;;7.00;28.00;;;;;;6247959;22;20390;-84
2022/03/21 06:28:27;;;;;;;10.70;9.50;;;7.00;28.00;;;;;;6248130;22;20864;-84
2022/03/21 06:30:53;;;;;;;13.30;11.47;;;7.00;28.40;;;;;;6248328;22;20389;-84
2022/03/21 06:33:25;;;;;;;12.10;10.17;;;6.90;27.90;;;;;;6248063;22;20446;-84
2022/03/21 06:35:51;;;;;;;16.77;15.13;;;7.00;28.30;;;;;;6247662;22;20432;-84
2022/03/21 06:38:17;;;;;;;13.70;9.60;;;7.10;28.50;;;;;;6275464;22;20369;-84
2022/03/21 06:40:43;;;;;;;10.33;9.33;;;7.10;28.10;;;;;;6247758;22;20438;-84
2022/03/21 06:43:10;;;;;;;11.47;10.00;;;7.10;29.10;;;;;;6248132;22;20392;-83
2022/03/21 06:45:39;;;;;;;16.63;11.10;;;7.10;28.10;;;;;;6247779;22;20853;-82
2022/03/21 06:48:09;;;;;;;14.57;10.57;;;7.10;27.90;;;;;;6248017;22;20396;-83
2022/03/21 06:50:35;;;;;;;12.07;10.80;;;7.20;27.50;;;;;;6247974;22;20447;-82
2022/03/21 06:53:01;;;;;;;11.60;10.40;;;7.20;28.20;;;;;;6247643;22;20385;-82
2022/03/21 06:55:27;;;;;;;10.90;9.90;;;7.30;27.30;;;;;;6247252;22;20456;-82
2022/03/21 06:57:53;;;;;;;11.40;9.60;;;7.30;28.10;;;;;;6247446;22;20388;-82
2022/03/21 07:00:18;;;;;;;12.10;10.60;;;7.30;28.00;;;;;;6247896;22;20443;-82
2022/03/21 07:02:44;;;;;;;14.23;11.10;;;7.40;28.00;;;;;;6247475;22;20409;-82
2022/03/21 07:05:11;;;;;;;13.67;10.23;;;7.40;28.80;;;;;;6247737;22;20158;-82
2022/03/21 07:07:37;;;;;;;14.70;13.10;;;7.50;27.90;;;;;;6246928;22;20395;-82
2022/03/21 07:10:08;;;;;;;13.40;11.50;;;7.60;28.90;;;;;;6247782;22;20488;-82
2022/03/21 07:12:35;;;;;;;16.03;12.93;;;7.60;28.40;;;;;;6247184;22;20912;-82
2022/03/21 07:15:02;;;;;;;11.77;10.53;;;7.50;28.30;;;;;;6247538;22;20393;-82
2022/03/21 07:17:29;;;;;;;11.60;10.40;;;7.60;28.80;;;;;;6247518;22;20437;-83
2022/03/21 07:19:55;;;;;;;16.17;11.70;;;7.60;28.00;;;;;;6247674;22;20373;-83
2022/03/21 07:22:21;;;;;;;16.80;12.00;;;7.70;28.70;;;;;;6248864;22;20382;-82
2022/03/21 07:24:50;;;;;;;16.07;11.23;;;7.70;27.70;;;;;;6276483;22;20853;-82
2022/03/21 07:27:16;;;;;;;14.20;9.60;;;7.70;28.00;;;;;;6249759;22;20169;-82
2022/03/21 07:29:42;;;;;;;12.80;10.27;;;7.80;27.70;;;;;;6249627;22;20389;-82
2022/03/21 07:32:09;;;;;;;12.00;10.33;;;7.90;26.40;;;;;;6249809;22;20397;-82
2022/03/21 07:34:34;;;;;;;13.07;10.93;;;8.00;26.50;;;;;;6249218;22;20861;-82
2022/03/21 07:37:00;;;;;;;15.00;10.93;;;8.00;27.30;;;;;;6249511;22;20421;-82
2022/03/21 07:39:26;;;;;;;11.50;10.20;;;8.10;27.40;;;;;;6249263;22;20162;-82
2022/03/21 07:41:59;;;;;;;10.27;9.37;;;8.10;27.90;;;;;;6249631;22;20204;-82
2022/03/21 07:47:20;;;;;;;11.10;9.80;;;8.20;26.90;;;;;;6276890;22;20879;-82
2022/03/21 07:49:56;;;;;;;12.97;9.87;;;8.20;27.60;;;;;;6249950;22;20385;-83
2022/03/21 07:52:22;;;;;;;10.93;9.80;;;8.20;26.80;;;;;;6250397;22;20389;-82
2022/03/21 07:54:53;;;;;;;13.03;10.80;;;8.20;27.00;;;;;;6250098;22;20938;-82
2022/03/21 07:57:20;;;;;;;13.83;10.80;;;8.20;25.80;;;;;;6249769;22;20429;-82
2022/03/21 07:59:46;;;;;;;15.63;11.30;;;8.30;26.50;;;;;;6250676;22;20378;-82
2022/03/21 08:02:12;;;;;;;12.50;11.20;;;8.40;27.60;;;;;;6249949;22;20385;-82
2022/03/21 08:04:38;;;;;;;17.20;11.83;;;8.40;28.10;;;;;;6249934;22;20388;-82
2022/03/21 08:07:04;;;;;;;10.53;9.50;;;8.50;28.90;;;;;;6249118;22;20866;-82
2022/03/21 08:09:29;;;;;;;15.23;11.23;;;8.50;26.90;;;;;;6249274;22;20178;-83
2022/03/21 08:11:57;;;;;;;10.93;9.73;;;8.60;25.60;;;;;;6249199;22;20166;-80
2022/03/21 08:14:24;;;;;;;15.52;11.85;;;8.60;26.60;;;;;;6249117;22;20382;-80
2022/03/21 08:16:50;;;;;;;12.50;10.93;;;8.70;26.00;;;;;;6249269;22;20179;-81
2022/03/21 08:19:24;;;;;;;12.93;10.90;;;8.60;24.50;;;;;;6250009;22;20876;-81
2022/03/21 08:21:52;;;;;;;14.37;12.87;;;8.70;25.80;;;;;;6248941;22;20421;-81
2022/03/21 08:24:19;;;;;;;14.57;11.03;;;8.80;25.90;;;;;;6249235;22;20469;-81
2022/03/21 08:26:45;;;;;;;15.00;11.80;;;8.80;26.10;;;;;;6248886;22;20392;-80
2022/03/21 08:29:10;;;;;;;13.83;11.80;;;8.70;25.00;;;;;;6249469;22;20387;-81
2022/03/21 08:31:36;;;;;;;19.60;15.93;;;8.80;27.00;;;;;;6275897;22;20398;-81
2022/03/21 08:34:05;;;;;;;16.10;14.33;;;8.90;26.40;;;;;;6249718;22;20243;-81
2022/03/21 08:36:32;;;;;;;13.80;12.43;;;9.00;27.10;;;;;;6249384;22;20239;-80
2022/03/21 08:38:59;;;;;;;13.67;12.20;;;9.00;25.70;;;;;;6248968;22;20381;-81
2022/03/21 08:41:25;;;;;;;13.37;10.73;;;9.10;26.20;;;;;;6249216;22;20396;-81
2022/03/21 08:43:51;;;;;;;13.70;10.63;;;9.10;25.80;;;;;;6249274;22;20389;-81
2022/03/21 08:46:17;;;;;;;14.43;11.40;;;9.20;28.10;;;;;;6249700;22;20455;-81
2022/03/21 08:51:26;;;;;;;12.87;11.57;;;9.40;25.70;;;;;;6276971;22;20193;-81
2022/03/21 08:53:53;;;;;;;14.70;11.50;;;9.40;26.80;;;;;;6275619;22;20838;-81
2022/03/21 08:56:19;;;;;;;15.13;12.47;;;9.50;25.00;;;;;;6249019;22;20174;-83
2022/03/21 08:58:44;;;;;;;14.47;11.60;;;9.50;25.80;;;;;;6249054;22;20841;-82
2022/03/21 09:01:10;;;;;;;13.00;11.73;;;9.60;25.60;;;;;;6249065;22;20385;-82
2022/03/21 09:03:36;;;;;;;18.50;12.60;;;9.70;25.90;;;;;;6249213;22;20161;-82
2022/03/21 09:06:02;;;;;;;12.90;11.03;;;9.70;24.90;;;;;;6248567;22;20158;-81
2022/03/21 09:08:27;;;;;;;17.30;12.63;;;9.80;25.50;;;;;;6248500;22;20166;-81
2022/03/21 09:10:53;;;;;;;15.70;12.57;;;9.90;25.20;;;;;;6248524;22;20159;-81
2022/03/21 09:13:19;;;;;;;12.23;10.77;;;10.00;23.20;;;;;;6249021;22;20308;-81
2022/03/21 09:15:45;;;;;;;21.47;14.07;;;10.10;23.00;;;;;;6248482;22;20183;-81
2022/03/21 09:18:11;;;;;;;14.97;11.70;;;10.20;23.60;;;;;;6275940;22;20852;-81
2022/03/21 09:20:37;;;;;;;14.00;11.83;;;10.30;23.40;;;;;;6248781;22;20205;-81
2022/03/21 09:23:04;;;;;;;13.53;12.13;;;10.40;23.50;;;;;;6248528;22;20178;-81
2022/03/21 09:25:30;;;;;;;14.57;12.13;;;10.40;23.50;;;;;;6248693;22;20389;-81
2022/03/21 09:27:55;;;;;;;17.47;12.20;;;10.50;23.60;;;;;;6248922;22;20385;-81
2022/03/21 09:30:21;;;;;;;13.20;11.20;;;10.60;23.30;;;;;;6250074;22;20591;-81
2022/03/21 09:32:47;;;;;;;14.33;12.83;;;10.70;23.20;;;;;;6248584;22;20238;-81
2022/03/21 09:35:13;;;;;;;11.53;10.37;;;10.70;22.80;;;;;;6249371;22;20154;-82
2022/03/21 09:37:42;;;;;;;14.80;13.20;;;10.80;22.60;;;;;;6249365;22;20613;-82
2022/03/21 09:40:12;;;;;;;22.63;12.63;;;11.00;22.10;;;;;;6224220;22;20389;-83
2022/03/21 09:42:39;;;;;;;19.10;13.77;;;11.00;22.70;;;;;;6248071;22;20777;-83
2022/03/21 09:45:10;;;;;;;19.37;13.83;;;11.10;23.10;;;;;;6248470;22;20458;-82
2022/03/21 09:48:08;;;;;;;22.87;12.33;;;11.20;23.20;;;;;;6248874;22;20385;-82
2022/03/21 09:50:35;;;;;;;14.60;12.77;;;11.20;21.80;;;;;;6274115;22;20518;-82
2022/03/21 09:53:12;;;;;;;23.03;18.43;;;11.30;22.10;;;;;;6248042;22;20392;-82
2022/03/21 09:56:08;;;;;;;21.38;16.27;;;11.40;21.30;;;;;;6246994;22;20395;-84
2022/03/21 09:58:34;;;;;;;17.17;13.83;;;11.50;21.70;;;;;;6246172;22;20233;-83
2022/03/21 10:01:06;;;;;;;22.97;16.10;;;11.50;21.60;;;;;;6249128;22;20388;-85
2022/03/21 10:03:35;;;;;;;17.70;13.00;;;11.60;21.00;;;;;;6247873;22;20447;-88
2022/03/21 10:06:20;;;;;;;17.47;14.10;;;11.70;21.80;;;;;;6248064;22;20397;-83
2022/03/21 10:09:09;;;;;;;19.70;12.40;;;11.80;22.00;;;;;;6247413;22;20806;-85
2022/03/21 10:12:11;;;;;;;14.30;11.90;;;11.90;21.90;;;;;;6248036;22;20726;-85
2022/03/21 10:15:04;;;;;;;13.50;12.13;;;11.90;21.30;;;;;;6263694;22;20393;-85
2022/03/21 10:17:35;;;;;;;16.57;13.83;;;11.90;20.80;;;;;;6239306;22;20433;-83
2022/03/21 10:20:29;;;;;;;15.00;12.80;;;12.00;21.80;;;;;;6248322;22;20431;-83
2022/03/21 10:23:16;;;;;;;16.50;11.87;;;12.10;22.10;;;;;;6248284;22;20438;-85
2022/03/21 10:25:42;;;;;;;16.13;13.43;;;12.20;21.80;;;;;;6248189;22;20381;-85
2022/03/21 10:28:08;;;;;;;16.37;13.80;;;12.30;19.80;;;;;;6248983;22;20392;-83
2022/03/21 10:30:44;;;;;;;17.90;14.80;;;12.40;20.10;;;;;;6248177;22;20381;-85
2022/03/21 10:33:23;;;;;;;16.63;13.23;;;12.50;20.50;;;;;;6248133;22;20471;-84
2022/03/21 10:35:51;;;;;;;19.57;13.57;;;12.50;20.80;;;;;;6247593;22;20495;-84
2022/03/21 10:39:05;;;;;;;14.90;13.27;;;12.60;20.90;;;;;;6248343;22;20472;-84
2022/03/21 10:41:40;;;;;;;15.93;13.10;;;12.70;21.00;;;;;;6274850;22;20448;-84
2022/03/21 10:47:08;;;;;;;17.00;13.70;;;12.80;20.10;;;;;;6273719;22;20378;-84
2022/03/21 10:49:45;;;;;;;18.23;13.60;;;12.90;19.50;;;;;;6273193;22;20714;-84
2022/03/21 10:52:19;;;;;;;18.53;15.60;;;13.00;20.50;;;;;;6246256;22;20763;-85
2022/03/21 10:54:48;;;;;;;15.20;12.80;;;13.00;20.30;;;;;;6247134;22;20707;-85
2022/03/21 10:57:36;;;;;;;16.20;13.03;;;13.10;19.90;;;;;;6249318;22;20429;-85
2022/03/21 11:00:26;;;;;;;16.20;13.57;;;13.20;20.70;;;;;;6250036;22;20376;-84
2022/03/21 11:03:14;;;;;;;27.17;14.23;;;13.30;19.30;;;;;;6249734;22;20440;-84
2022/03/21 11:05:42;;;;;;;19.50;14.40;;;13.30;20.20;;;;;;6250268;22;20373;-84
2022/03/21 11:08:10;;;;;;;15.23;13.60;;;13.30;19.90;;;;;;6249727;22;20388;-84
2022/03/21 11:10:37;;;;;;;17.07;14.40;;;13.30;19.90;;;;;;6277336;22;20412;-84
2022/03/21 11:13:08;;;;;;;17.23;13.27;;;13.30;20.20;;;;;;6250018;22;20391;-84
2022/03/21 11:15:36;;;;;;;18.93;14.40;;;13.40;18.30;;;;;;6249220;22;20378;-84
2022/03/21 11:18:05;;;;;;;15.60;12.67;;;13.40;18.20;;;;;;6249273;22;20392;-84
2022/03/21 11:20:31;;;;;;;17.43;14.53;;;13.40;19.10;;;;;;6246848;22;20853;-85
2022/03/21 11:22:59;;;;;;;17.80;13.90;;;13.40;18.30;;;;;;6250192;22;20381;-83
2022/03/21 11:25:41;;;;;;;122.05;95.80;;;13.50;19.80;;;;;;6248037;22;20823;-84
2022/03/21 11:28:41;;;;;;;51.10;41.17;;;13.50;19.80;;;;;;6243481;22;20182;-83
2022/03/21 11:31:34;;;;;;;15.87;13.73;;;13.60;19.10;;;;;;6249189;22;20443;-83
2022/03/21 11:34:43;;;;;;;16.97;14.20;;;13.60;18.50;;;;;;6248685;22;20945;-83
2022/03/21 11:37:53;;;;;;;15.67;14.03;;;13.70;17.80;;;;;;6248672;22;20490;-83
2022/03/21 11:40:58;;;;;;;24.43;14.30;;;13.80;18.10;;;;;;6249264;22;20409;-83
2022/03/21 11:43:32;;;;;;;21.43;14.67;;;13.90;18.90;;;;;;6276702;22;20369;-83
2022/03/21 11:46:25;;;;;;;17.63;15.83;;;13.90;18.70;;;;;;6249478;22;20417;-83
2022/03/21 11:49:02;;;;;;;16.97;14.40;;;13.90;18.00;;;;;;6248092;22;20892;-83
2022/03/21 11:52:04;;;;;;;19.93;14.87;;;13.90;18.30;;;;;;6247981;22;20425;-83
2022/03/21 11:54:53;;;;;;;19.07;16.20;;;13.90;19.30;;;;;;6247967;22;20755;-83
2022/03/21 11:57:31;;;;;;;15.07;13.50;;;13.70;18.70;;;;;;6248512;22;20486;-82
2022/03/21 12:00:15;;;;;;;19.63;17.80;;;13.80;19.00;;;;;;6249680;22;20382;-81
2022/03/21 12:02:40;;;;;;;16.67;13.50;;;13.90;19.10;;;;;;6249319;22;20404;-83
2022/03/21 12:05:10;;;;;;;19.73;15.13;;;14.00;18.90;;;;;;6249121;22;20460;-84
2022/03/21 12:07:42;;;;;;;16.97;14.93;;;14.00;18.40;;;;;;6247984;22;20238;-84
2022/03/21 12:10:45;;;;;;;15.93;12.50;;;14.10;17.80;;;;;;6249360;22;20413;-85
2022/03/21 12:17:30;;;;;;;14.97;13.40;;;14.00;17.60;;;;;;6219791;22;20436;-85
2022/03/21 12:20:05;;;;;;;19.93;13.43;;;14.10;19.40;;;;;;6248118;22;20381;-84
2022/03/21 12:22:43;;;;;;;14.47;13.03;;;14.20;17.80;;;;;;6250152;22;20380;-85
2022/03/21 12:25:52;;;;;;;21.83;12.60;;;14.30;16.90;;;;;;6249523;22;20834;-84
2022/03/21 12:31:46;;;;;;;14.17;12.50;;;14.30;17.80;;;;;;6276413;22;20830;-85
2022/03/21 12:34:37;;;;;;;15.03;13.40;;;14.40;18.50;;;;;;6249251;22;20888;-84
2022/03/21 12:37:08;;;;;;;14.83;13.23;;;14.50;17.20;;;;;;6248999;22;20425;-84
2022/03/21 12:40:10;;;;;;;17.73;13.10;;;14.50;18.00;;;;;;6248920;22;20378;-83
2022/03/21 12:42:54;;;;;;;14.70;11.90;;;14.40;16.70;;;;;;6249060;22;20381;-83
2022/03/21 12:45:31;;;;;;;14.80;12.07;;;14.50;18.00;;;;;;6248504;22;20854;-83
2022/03/21 12:48:41;;;;;;;19.27;13.67;;;14.50;18.60;;;;;;6248358;22;20377;-83
2022/03/21 12:51:01;;;;;;;15.00;12.57;;;14.70;17.60;;;;;;6271145;22;20392;-83
2022/03/21 12:53:48;;;;;;;18.60;13.40;;;14.70;17.00;;;;;;6248698;22;20405;-83
2022/03/21 12:56:58;;;;;;;14.17;12.77;;;14.80;17.00;;;;;;6247887;22;20447;-83
2022/03/21 12:59:27;;;;;;;14.00;12.50;;;14.90;16.50;;;;;;6152549;23;20384;-83
2022/03/21 13:02:06;;;;;;;15.37;13.77;;;14.90;17.10;;;;;;6127219;23;20975;-83
2022/03/21 13:10:36;;;;;;;17.07;15.47;;;14.90;16.80;;;;;;6166580;22;20408;-82
2022/03/21 13:16:15;;;;;;;13.60;12.30;;;15.10;16.30;;;;;;6275975;22;20413;-84
2022/03/21 13:18:46;;;;;;;15.17;10.50;;;15.10;16.10;;;;;;6248680;22;20385;-83
2022/03/21 13:21:12;;;;;;;13.57;12.17;;;15.30;16.90;;;;;;6276390;22;20357;-83
2022/03/21 13:23:43;;;;;;;14.50;10.67;;;15.30;15.90;;;;;;6248453;22;20928;-83
2022/03/21 13:26:22;;;;;;;13.50;12.10;;;15.40;13.90;;;;;;6248953;22;20401;-84
2022/03/21 13:29:09;;;;;;;15.80;11.73;;;15.30;14.80;;;;;;6248993;22;20393;-83
2022/03/21 13:31:45;;;;;;;17.73;11.77;;;15.30;14.30;;;;;;6247792;22;20845;-80
2022/03/21 13:34:14;;;;;;;12.70;11.30;;;15.30;14.50;;;;;;6276241;22;20761;-83
2022/03/21 13:36:48;;;;;;;18.57;12.07;;;15.20;15.20;;;;;;6248796;22;20429;-81
2022/03/21 13:40:07;;;;;;;17.17;12.90;;;15.30;15.60;;;;;;6249070;22;20746;-81